Linda Moran — WDE4187 — position and weather

sailwx.info

Track history (hours):
 
Tides and Currents Weather Stations Pressure Air Temp Water Temp Dewpoint Dewpoint Depression Visibility Wind Speed Wind Dir Waves Ship Positions

Linda Moran

Owner: MORAN TOWING CORP., NEW CANAAN, CT. More information available from US FCC via Universal Licensing System and Coast Guard Vessel Documentation Center.

Last reported at 2017-Apr-29 10:59 UTC. Time now 2017-Apr-29 11:29 UTC.
Position N 42°23' W 071°01'.

Length 156 m; draft 7.6 m.

Type: . MMSI: 367349860.

Date/timePositionNaut miles runAvg speedWind from/ knotsBaromVisibWave heightAir tempDewpointWater temp
2017-Apr-29 10:59N 42°23' W 071°01'0 0.0
2017-Apr-29 10:29N 42°23' W 071°01'0 0.0
2017-Apr-29 09:59N 42°23' W 071°01'0 0.0
2017-Apr-29 09:29N 42°23' W 071°01'0 0.0
2017-Apr-29 08:41N 42°23' W 071°01'0 0.0
2017-Apr-29 08:23N 42°23' W 071°01'0 0.0
2017-Apr-29 07:53N 42°23' W 071°01'0 0.0
2017-Apr-29 07:29N 42°23' W 071°01'0 0.0
2017-Apr-29 06:59N 42°23' W 071°01'0 0.0
2017-Apr-29 06:23N 42°23' W 071°01'0 0.0
2017-Apr-29 05:59N 42°23' W 071°01'0 0.0
2017-Apr-29 05:29N 42°23' W 071°01'0 0.0
2017-Apr-29 04:59N 42°23' W 071°01'0 0.0
2017-Apr-29 04:29N 42°23' W 071°01'0 0.0
2017-Apr-29 03:59N 42°23' W 071°01'0 0.0
2017-Apr-29 03:17N 42°23' W 071°01'0 0.0
2017-Apr-29 02:53N 42°23' W 071°01'0 0.0
2017-Apr-29 02:23N 42°23' W 071°01'0 0.0
2017-Apr-29 01:59N 42°23' W 071°01'0 0.0
2017-Apr-29 01:29N 42°23' W 071°01'0 0.0
2017-Apr-29 00:17N 42°23' W 071°01'0 0.0
2017-Apr-28 23:41N 42°23' W 071°01'0 0.0
2017-Apr-28 23:23N 42°23' W 071°01'0 0.0
2017-Apr-28 22:59N 42°23' W 071°01'0 0.0
2017-Apr-28 22:29N 42°23' W 071°01'0 0.0
2017-Apr-28 21:56N 42°23' W 071°01'0 0.0
2017-Apr-28 21:29N 42°23' W 071°01'0 0.0
2017-Apr-28 16:38N 42°23' W 071°01'0 0.0
2017-Apr-28 16:22N 42°23' W 071°01'0 0.1
2017-Apr-28 16:00N 42°23' W 071°01'0 0.4
2017-Apr-28 15:29N 42°23' W 071°02'2 4.9
2017-Apr-28 15:00N 42°21' W 071°01'2 1.7
2017-Apr-28 13:59N 42°20' W 070°59'0 0.0
2017-Apr-28 13:29N 42°20' W 070°59'0 0.0
2017-Apr-28 12:59N 42°20' W 070°59'0 0.0
2017-Apr-28 12:26N 42°20' W 070°59'0 0.1
2017-Apr-28 11:59N 42°20' W 070°59'0 0.2
2017-Apr-28 11:29N 42°20' W 070°58'0 0.1
2017-Apr-28 10:59N 42°20' W 070°58'0 0.0
2017-Apr-28 10:29N 42°20' W 070°58'0 0.0
2017-Apr-28 09:59N 42°20' W 070°58'1 2.1
2017-Apr-28 09:31N 42°20' W 070°57'4 8.2
2017-Apr-28 09:01N 42°23' W 070°53'4 8.7
2017-Apr-28 08:30N 42°21' W 070°47'5 9.4
2017-Apr-28 08:00N 42°19' W 070°42'5 9.5
2017-Apr-28 07:30N 42°15' W 070°37'5 9.7
2017-Apr-28 07:00N 42°12' W 070°33'5 9.6
2017-Apr-28 06:29N 42°07' W 070°31'5 9.9
2017-Apr-28 05:58N 42°02' W 070°29'278 8.1
2017-Apr-26 19:41N 39°03' W 075°10'211.9
2017-Apr-26 19:30N 39°05' W 075°11'612.2
2017-Apr-26 19:00N 39°10' W 075°16'612.5
2017-Apr-26 18:30N 39°16' W 075°20'612.3
2017-Apr-26 18:01N 39°20' W 075°25'611.3
2017-Apr-26 17:31N 39°24' W 075°30'5 9.9
2017-Apr-26 17:00N 39°29' W 075°34'5 9.3
2017-Apr-26 16:30N 39°33' W 075°32'3 6.5
2017-Apr-26 16:00N 39°35' W 075°36'0 0.0
2017-Apr-26 15:30N 39°35' W 075°36'0 0.0
2017-Apr-26 15:00N 39°35' W 075°36'0 0.0
2017-Apr-26 14:30N 39°35' W 075°36'0 0.0
2017-Apr-26 13:30N 39°35' W 075°36'0 0.0
2017-Apr-26 13:00N 39°35' W 075°36'0 0.0
2017-Apr-26 12:30N 39°35' W 075°36'0 0.0
2017-Apr-26 12:00N 39°35' W 075°36'0 0.0
2017-Apr-26 11:30N 39°35' W 075°36'0 0.0
2017-Apr-26 11:00N 39°35' W 075°36'0 0.0
2017-Apr-26 10:30N 39°35' W 075°36'0 0.0
2017-Apr-26 10:00N 39°35' W 075°36'0 0.0
2017-Apr-26 09:30N 39°35' W 075°36'0 0.0
2017-Apr-26 09:00N 39°35' W 075°36'0 0.0
2017-Apr-26 08:30N 39°35' W 075°36'0 0.0
2017-Apr-26 08:00N 39°35' W 075°36'0 0.0
2017-Apr-26 07:30N 39°35' W 075°36'0 0.0
2017-Apr-26 07:00N 39°35' W 075°36'0 0.0
2017-Apr-26 06:30N 39°35' W 075°36'0 0.0
2017-Apr-26 06:00N 39°35' W 075°36'0 0.0
2017-Apr-26 05:30N 39°35' W 075°36'0 0.0
2017-Apr-26 05:00N 39°35' W 075°36'0 0.0
2017-Apr-26 04:30N 39°35' W 075°36'0 0.0
2017-Apr-26 04:00N 39°35' W 075°36'0 0.0
2017-Apr-26 03:30N 39°35' W 075°36'0 0.0
2017-Apr-26 03:00N 39°35' W 075°36'0 0.0
2017-Apr-26 02:30N 39°35' W 075°36'0 0.0
2017-Apr-26 02:00N 39°35' W 075°36'0 0.0
2017-Apr-26 01:30N 39°35' W 075°36'0 0.0
2017-Apr-26 01:00N 39°35' W 075°36'0 0.0
2017-Apr-26 00:30N 39°35' W 075°36'0 0.0
2017-Apr-26 00:00N 39°35' W 075°36'0 0.0
2017-Apr-25 23:30N 39°35' W 075°36'0 0.0
2017-Apr-25 23:00N 39°35' W 075°36'0 0.0
2017-Apr-25 22:30N 39°35' W 075°36'0 0.0
2017-Apr-25 22:00N 39°35' W 075°36'0 0.0
2017-Apr-25 21:30N 39°35' W 075°36'0 0.0
2017-Apr-25 21:00N 39°35' W 075°36'0 0.0
2017-Apr-25 20:30N 39°35' W 075°36'0 0.0
2017-Apr-25 20:00N 39°35' W 075°36'0 0.0
2017-Apr-25 19:30N 39°35' W 075°36'0 0.0
2017-Apr-25 19:00N 39°35' W 075°36'0 0.0
2017-Apr-25 18:30N 39°35' W 075°36'0 0.0
2017-Apr-25 18:00N 39°35' W 075°36'0 0.0
2017-Apr-25 17:30N 39°35' W 075°36'0 0.0
2017-Apr-25 17:00N 39°35' W 075°36'0 0.0
2017-Apr-25 16:30N 39°35' W 075°36'0 0.0
2017-Apr-25 16:00N 39°35' W 075°36'0 0.0
2017-Apr-25 15:30N 39°35' W 075°36'0 0.0
2017-Apr-25 15:00N 39°35' W 075°36'0 0.0
2017-Apr-25 14:00N 39°35' W 075°36'0 0.0
2017-Apr-25 13:30N 39°35' W 075°36'0 0.0
2017-Apr-25 13:00N 39°35' W 075°36'0 0.0
2017-Apr-25 12:30N 39°35' W 075°36'0 0.0
2017-Apr-25 12:00N 39°35' W 075°36'0 0.0
2017-Apr-25 11:30N 39°35' W 075°36'0 0.0
2017-Apr-25 11:00N 39°35' W 075°36'0 0.0
2017-Apr-25 10:30N 39°35' W 075°36'0 0.0
2017-Apr-25 10:00N 39°35' W 075°36'0 0.0
2017-Apr-25 09:30N 39°35' W 075°36'0 0.0
2017-Apr-25 09:00N 39°35' W 075°36'0 0.0
2017-Apr-25 08:30N 39°35' W 075°36'0 0.0
2017-Apr-25 07:57N 39°35' W 075°36'0 0.0
2017-Apr-25 07:30N 39°35' W 075°36'0 0.0
2017-Apr-25 07:00N 39°35' W 075°36'0 0.0
2017-Apr-25 06:30N 39°35' W 075°36'0 0.0
2017-Apr-25 06:00N 39°35' W 075°36'0 0.0
2017-Apr-25 05:30N 39°35' W 075°36'0 0.0
2017-Apr-25 05:00N 39°35' W 075°36'0 0.0
2017-Apr-25 04:30N 39°35' W 075°36'0 0.0
2017-Apr-25 04:00N 39°35' W 075°36'1 2.3
2017-Apr-25 03:30N 39°35' W 075°34'1 2.0
2017-Apr-25 03:00N 39°36' W 075°34'4 7.2
2017-Apr-25 02:30N 39°39' W 075°33'4 7.9
2017-Apr-25 02:00N 39°43' W 075°31'4 7.9
2017-Apr-25 01:30N 39°46' W 075°28'3 6.9
2017-Apr-25 01:00N 39°48' W 075°25'0 0.0
2017-Apr-25 00:29N 39°48' W 075°25'0 0.4
2017-Apr-24 23:59N 39°48' W 075°25'0 0.1
2017-Apr-24 23:29N 39°48' W 075°25'0 0.0
2017-Apr-24 22:59N 39°48' W 075°25'0 0.0
2017-Apr-24 22:29N 39°48' W 075°25'0 0.0
2017-Apr-24 21:59N 39°48' W 075°25'0 0.0
2017-Apr-24 21:29N 39°48' W 075°25'0 0.0
2017-Apr-24 20:59N 39°48' W 075°25'0 0.0
2017-Apr-24 20:30N 39°48' W 075°25'0 0.0
2017-Apr-24 20:00N 39°48' W 075°25'0 0.0
2017-Apr-24 19:30N 39°48' W 075°25'0 0.1
2017-Apr-24 19:00N 39°48' W 075°25'0 0.0
2017-Apr-24 18:30N 39°48' W 075°25'0 0.0
2017-Apr-24 18:00N 39°48' W 075°25'0 0.3
2017-Apr-24 17:30N 39°48' W 075°25'1 2.2
2017-Apr-24 17:00N 39°49' W 075°24'0 0.2
2017-Apr-24 16:24N 39°49' W 075°23'0 0.0
2017-Apr-24 16:00N 39°49' W 075°23'0 0.0
2017-Apr-24 15:30N 39°49' W 075°23'0 0.1
2017-Apr-24 15:00N 39°49' W 075°23'0 0.0
2017-Apr-24 14:30N 39°49' W 075°23'0 0.0
2017-Apr-24 13:27N 39°49' W 075°23'0 0.0
2017-Apr-24 13:00N 39°49' W 075°23'0 0.1
2017-Apr-24 12:30N 39°49' W 075°24'0 0.2
2017-Apr-24 12:00N 39°49' W 075°24'0 0.2
2017-Apr-24 11:30N 39°49' W 075°24'0 0.0
2017-Apr-24 11:00N 39°49' W 075°24'0 0.0
2017-Apr-24 10:30N 39°49' W 075°24'0 0.0
2017-Apr-24 10:00N 39°49' W 075°24'0 0.0
2017-Apr-24 09:30N 39°49' W 075°24'0 0.0
2017-Apr-24 09:00N 39°49' W 075°24'0 0.0
2017-Apr-24 08:30N 39°49' W 075°24'0 0.0
2017-Apr-24 08:00N 39°49' W 075°24'0 0.0
2017-Apr-24 07:30N 39°49' W 075°24'0 0.0
2017-Apr-24 07:00N 39°49' W 075°24'0 0.0
2017-Apr-24 06:30N 39°49' W 075°24'0 0.0
2017-Apr-24 06:00N 39°49' W 075°24'0 0.0
2017-Apr-24 05:30N 39°49' W 075°24'0 0.3
2017-Apr-24 05:00N 39°49' W 075°23'0 0.1
2017-Apr-24 04:30N 39°49' W 075°23'0 0.0
2017-Apr-24 04:00N 39°49' W 075°23'0 0.0
2017-Apr-24 03:30N 39°49' W 075°23'0 0.0
2017-Apr-24 03:00N 39°49' W 075°23'0 0.0
2017-Apr-24 02:30N 39°49' W 075°23'0 0.0
2017-Apr-24 01:57N 39°49' W 075°23'0 0.0
2017-Apr-24 01:30N 39°49' W 075°23'0 0.0
2017-Apr-24 01:00N 39°49' W 075°23'0 0.0
2017-Apr-24 00:30N 39°49' W 075°23'0 0.0
2017-Apr-24 00:00N 39°49' W 075°23'0 0.0
2017-Apr-23 23:27N 39°49' W 075°23'0 0.3
2017-Apr-23 23:00N 39°49' W 075°24'0 0.2
2017-Apr-23 22:30N 39°49' W 075°24'0 0.0
2017-Apr-23 22:00N 39°49' W 075°24'0 0.1
2017-Apr-23 21:30N 39°49' W 075°24'0 0.0
2017-Apr-23 21:00N 39°49' W 075°24'0 0.0
2017-Apr-23 20:27N 39°49' W 075°24'0 0.0
2017-Apr-23 20:00N 39°49' W 075°24'0 0.0
2017-Apr-23 19:30N 39°49' W 075°24'0 0.1
2017-Apr-23 18:57N 39°49' W 075°24'0 0.8
2017-Apr-23 18:30N 39°49' W 075°24'5 9.3
2017-Apr-23 18:00N 39°51' W 075°19'4 7.6
2017-Apr-23 17:29N 39°51' W 075°14'0 0.1
2017-Apr-23 16:59N 39°51' W 075°14'0 0.4
2017-Apr-23 16:30N 39°52' W 075°14'2 4.6
2017-Apr-23 15:58N 39°54' W 075°12'0 0.1
2017-Apr-23 15:28N 39°54' W 075°12'0 0.0
2017-Apr-23 14:55N 39°54' W 075°12'0 0.0
2017-Apr-23 13:58N 39°54' W 075°12'0 0.0
2017-Apr-23 13:28N 39°54' W 075°12'0 0.0
2017-Apr-23 12:58N 39°54' W 075°12'0 0.0
2017-Apr-23 12:28N 39°54' W 075°12'0 0.0
2017-Apr-23 11:58N 39°54' W 075°12'0 0.0
2017-Apr-23 11:30N 39°54' W 075°12'3 5.1
2017-Apr-23 10:58N 39°51' W 075°14'0 0.2
2017-Apr-23 10:28N 39°51' W 075°14'0 0.0
2017-Apr-23 09:58N 39°51' W 075°14'0 0.0
2017-Apr-23 09:28N 39°51' W 075°14'0 0.0
2017-Apr-23 08:58N 39°51' W 075°14'0 0.0
2017-Apr-23 08:28N 39°51' W 075°14'0 0.0
2017-Apr-23 07:58N 39°51' W 075°14'0 0.0
2017-Apr-23 07:28N 39°51' W 075°14'0 0.0
2017-Apr-23 06:58N 39°51' W 075°14'0 0.0
2017-Apr-23 06:28N 39°51' W 075°14'0 0.9
2017-Apr-23 06:01N 39°51' W 075°14'2 2.9
2017-Apr-23 05:29N 39°51' W 075°16'0 0.0
2017-Apr-23 04:59N 39°51' W 075°16'0 0.0
2017-Apr-23 04:29N 39°51' W 075°16'0 0.0
2017-Apr-23 03:59N 39°51' W 075°16'0 0.0
2017-Apr-23 03:29N 39°51' W 075°16'0 0.0
2017-Apr-23 02:59N 39°51' W 075°16'0 0.0
2017-Apr-23 02:29N 39°51' W 075°16'0 0.0
2017-Apr-23 01:59N 39°51' W 075°16'0 0.0
2017-Apr-23 01:29N 39°51' W 075°16'0 0.0
2017-Apr-23 00:59N 39°51' W 075°16'0 0.0
2017-Apr-23 00:29N 39°51' W 075°16'0 0.0
2017-Apr-22 23:59N 39°51' W 075°16'0 0.0
2017-Apr-22 23:29N 39°51' W 075°16'0 0.0
2017-Apr-22 22:59N 39°51' W 075°16'0 0.0
2017-Apr-22 22:29N 39°51' W 075°16'0 0.0
2017-Apr-22 21:59N 39°51' W 075°16'0 0.0
2017-Apr-22 21:29N 39°51' W 075°16'0 0.0
2017-Apr-22 20:59N 39°51' W 075°16'0 0.0
2017-Apr-22 20:29N 39°51' W 075°16'0 0.0
2017-Apr-22 19:59N 39°51' W 075°16'0 0.0
2017-Apr-22 19:29N 39°51' W 075°16'0 0.0
2017-Apr-22 18:59N 39°51' W 075°16'0 0.0
2017-Apr-22 18:29N 39°51' W 075°16'0 0.0
2017-Apr-22 17:59N 39°51' W 075°16'0 0.0
2017-Apr-22 17:29N 39°51' W 075°16'0 0.0
2017-Apr-22 16:59N 39°51' W 075°16'0 0.0
2017-Apr-22 16:29N 39°51' W 075°16'0 0.0
2017-Apr-22 15:59N 39°51' W 075°16'0 0.0
2017-Apr-22 15:29N 39°51' W 075°16'0 0.0
2017-Apr-22 14:59N 39°51' W 075°16'0 0.0
2017-Apr-22 14:29N 39°51' W 075°16'0 0.0
2017-Apr-22 13:29N 39°51' W 075°16'0 0.0
2017-Apr-22 12:59N 39°51' W 075°16'0 0.0
2017-Apr-22 12:29N 39°51' W 075°16'0 0.0
2017-Apr-22 11:59N 39°51' W 075°16'0 0.0
2017-Apr-22 11:29N 39°51' W 075°16'0 0.0
2017-Apr-22 10:59N 39°51' W 075°16'0 0.0
2017-Apr-22 10:29N 39°51' W 075°16'0 0.0
2017-Apr-22 09:59N 39°51' W 075°16'0 0.0
2017-Apr-22 09:29N 39°51' W 075°16'0 0.0
2017-Apr-22 08:59N 39°51' W 075°16'0 0.0
2017-Apr-22 08:29N 39°51' W 075°16'0 0.0
2017-Apr-22 07:59N 39°51' W 075°16'0 0.0
2017-Apr-22 07:29N 39°51' W 075°16'0 0.0
2017-Apr-22 06:59N 39°51' W 075°16'0 0.0
2017-Apr-22 06:29N 39°51' W 075°16'0 0.0
2017-Apr-22 05:59N 39°51' W 075°16'0 0.0
2017-Apr-22 05:29N 39°51' W 075°16'0 0.0
2017-Apr-22 04:59N 39°51' W 075°16'0 0.0
2017-Apr-22 04:29N 39°51' W 075°16'0 0.0
2017-Apr-22 03:59N 39°51' W 075°16'0 0.0
2017-Apr-22 03:29N 39°51' W 075°16'0 0.0
2017-Apr-22 02:59N 39°51' W 075°16'0 0.0
2017-Apr-22 02:29N 39°51' W 075°16'0 0.0
2017-Apr-22 01:59N 39°51' W 075°16'0 0.0
2017-Apr-22 01:29N 39°51' W 075°16'0 0.0
2017-Apr-22 00:56N 39°51' W 075°16'0 0.0
2017-Apr-22 00:29N 39°51' W 075°16'0 0.0
2017-Apr-21 23:59N 39°51' W 075°16'0 0.0
2017-Apr-21 23:29N 39°51' W 075°16'0 0.0
2017-Apr-21 23:00N 39°51' W 075°16'0 0.2
2017-Apr-21 22:30N 39°51' W 075°16'3 5.8
2017-Apr-21 22:00N 39°52' W 075°13'0 0.3
2017-Apr-21 21:30N 39°52' W 075°13'0 0.1
2017-Apr-21 21:00N 39°52' W 075°13'0 0.1
2017-Apr-21 20:30N 39°52' W 075°13'0 0.1
2017-Apr-21 20:00N 39°52' W 075°13'0 0.0
2017-Apr-21 19:30N 39°52' W 075°13'0 0.1
2017-Apr-21 19:00N 39°52' W 075°13'0 0.0
2017-Apr-21 18:30N 39°52' W 075°13'0 0.0
2017-Apr-21 18:00N 39°52' W 075°13'0 0.0
2017-Apr-21 17:30N 39°52' W 075°13'0 0.0
2017-Apr-21 17:00N 39°52' W 075°13'0 0.0
2017-Apr-21 16:30N 39°52' W 075°13'0 0.0
2017-Apr-21 16:00N 39°52' W 075°13'0 0.0
2017-Apr-21 15:30N 39°52' W 075°13'0 0.0
2017-Apr-21 15:00N 39°52' W 075°13'0 0.3
2017-Apr-21 14:27N 39°52' W 075°13'0 0.1
2017-Apr-21 13:30N 39°52' W 075°13'0 0.0
2017-Apr-21 13:00N 39°52' W 075°13'0 0.0
2017-Apr-21 12:30N 39°52' W 075°13'0 0.0
2017-Apr-21 12:00N 39°52' W 075°13'0 0.0
2017-Apr-21 11:30N 39°52' W 075°13'0 0.0
2017-Apr-21 11:00N 39°52' W 075°13'0 0.0
2017-Apr-21 10:30N 39°52' W 075°13'0 0.0
2017-Apr-21 10:00N 39°52' W 075°13'0 0.0
2017-Apr-21 09:30N 39°52' W 075°13'0 0.2
2017-Apr-21 09:00N 39°52' W 075°13'0 0.2
2017-Apr-21 08:30N 39°52' W 075°13'0 0.1
2017-Apr-21 07:57N 39°52' W 075°13'0 0.0
2017-Apr-21 07:30N 39°52' W 075°13'0 0.1
2017-Apr-21 07:00N 39°52' W 075°13'0 0.0
2017-Apr-21 06:30N 39°52' W 075°13'0 0.0
2017-Apr-21 06:00N 39°52' W 075°13'0 0.0
2017-Apr-21 05:30N 39°52' W 075°13'0 0.0
2017-Apr-21 05:00N 39°52' W 075°13'0 0.0
2017-Apr-21 04:30N 39°52' W 075°13'0 0.0
2017-Apr-21 04:00N 39°52' W 075°13'0 0.0
2017-Apr-21 03:30N 39°52' W 075°13'0 0.0
2017-Apr-21 03:01N 39°52' W 075°13'0 0.2
2017-Apr-21 02:30N 39°52' W 075°13'0 0.2
2017-Apr-21 02:00N 39°52' W 075°13'0 0.0
2017-Apr-21 01:31N 39°52' W 075°13'0 0.0
2017-Apr-21 01:01N 39°52' W 075°13'0 0.0
2017-Apr-21 00:30N 39°52' W 075°13'0 0.1
2017-Apr-21 00:01N 39°52' W 075°13'0 0.8
2017-Apr-20 23:31N 39°52' W 075°13'4 8.0
2017-Apr-20 23:00N 39°51' W 075°18'510.7
2017-Apr-20 22:30N 39°49' W 075°24'611.2
2017-Apr-20 22:00N 39°45' W 075°30'611.3
2017-Apr-20 21:30N 39°39' W 075°33'5 9.6
2017-Apr-20 21:01N 39°35' W 075°33'510.7
2017-Apr-20 20:30N 39°29' W 075°34'510.4
2017-Apr-20 20:00N 39°25' W 075°31'510.7
2017-Apr-20 19:31N 39°21' W 075°26'510.7
2017-Apr-20 19:01N 39°17' W 075°21'510.1
2017-Apr-20 18:31N 39°13' W 075°17'510.4
2017-Apr-20 18:00N 39°08' W 075°14'510.4
2017-Apr-20 17:30N 39°04' W 075°10'  
Track history (hours):
 
Tides and Currents Weather Stations Pressure Air Temp Water Temp Dewpoint Dewpoint Depression Visibility Wind Speed Wind Dir Waves Ship Positions

Linda Moran

Owner: MORAN TOWING CORP., NEW CANAAN, CT. More information available from US FCC via Universal Licensing System and Coast Guard Vessel Documentation Center.

Last reported at 2017-Apr-29 10:59 UTC. Time now 2017-Apr-29 11:29 UTC.
Position N 42°23' W 071°01'.

Length 156 m; draft 7.6 m.

Type: . MMSI: 367349860.

Date/timePositionNaut miles runAvg speedWind from/ knotsBaromVisibWave heightAir tempDewpointWater temp
2017-Apr-29 10:59N 42°23' W 071°01'0 0.0
2017-Apr-29 10:29N 42°23' W 071°01'0 0.0
2017-Apr-29 09:59N 42°23' W 071°01'0 0.0
2017-Apr-29 09:29N 42°23' W 071°01'0 0.0
2017-Apr-29 08:41N 42°23' W 071°01'0 0.0
2017-Apr-29 08:23N 42°23' W 071°01'0 0.0
2017-Apr-29 07:53N 42°23' W 071°01'0 0.0
2017-Apr-29 07:29N 42°23' W 071°01'0 0.0
2017-Apr-29 06:59N 42°23' W 071°01'0 0.0
2017-Apr-29 06:23N 42°23' W 071°01'0 0.0
2017-Apr-29 05:59N 42°23' W 071°01'0 0.0
2017-Apr-29 05:29N 42°23' W 071°01'0 0.0
2017-Apr-29 04:59N 42°23' W 071°01'0 0.0
2017-Apr-29 04:29N 42°23' W 071°01'0 0.0
2017-Apr-29 03:59N 42°23' W 071°01'0 0.0
2017-Apr-29 03:17N 42°23' W 071°01'0 0.0
2017-Apr-29 02:53N 42°23' W 071°01'0 0.0
2017-Apr-29 02:23N 42°23' W 071°01'0 0.0
2017-Apr-29 01:59N 42°23' W 071°01'0 0.0
2017-Apr-29 01:29N 42°23' W 071°01'0 0.0
2017-Apr-29 00:17N 42°23' W 071°01'0 0.0
2017-Apr-28 23:41N 42°23' W 071°01'0 0.0
2017-Apr-28 23:23N 42°23' W 071°01'0 0.0
2017-Apr-28 22:59N 42°23' W 071°01'0 0.0
2017-Apr-28 22:29N 42°23' W 071°01'0 0.0
2017-Apr-28 21:56N 42°23' W 071°01'0 0.0
2017-Apr-28 21:29N 42°23' W 071°01'0 0.0
2017-Apr-28 16:38N 42°23' W 071°01'0 0.0
2017-Apr-28 16:22N 42°23' W 071°01'0 0.1
2017-Apr-28 16:00N 42°23' W 071°01'0 0.4
2017-Apr-28 15:29N 42°23' W 071°02'2 4.9
2017-Apr-28 15:00N 42°21' W 071°01'2 1.7
2017-Apr-28 13:59N 42°20' W 070°59'0 0.0
2017-Apr-28 13:29N 42°20' W 070°59'0 0.0
2017-Apr-28 12:59N 42°20' W 070°59'0 0.0
2017-Apr-28 12:26N 42°20' W 070°59'0 0.1
2017-Apr-28 11:59N 42°20' W 070°59'0 0.2
2017-Apr-28 11:29N 42°20' W 070°58'0 0.1
2017-Apr-28 10:59N 42°20' W 070°58'0 0.0
2017-Apr-28 10:29N 42°20' W 070°58'0 0.0
2017-Apr-28 09:59N 42°20' W 070°58'1 2.1
2017-Apr-28 09:31N 42°20' W 070°57'4 8.2
2017-Apr-28 09:01N 42°23' W 070°53'4 8.7
2017-Apr-28 08:30N 42°21' W 070°47'5 9.4
2017-Apr-28 08:00N 42°19' W 070°42'5 9.5
2017-Apr-28 07:30N 42°15' W 070°37'5 9.7
2017-Apr-28 07:00N 42°12' W 070°33'5 9.6
2017-Apr-28 06:29N 42°07' W 070°31'5 9.9
2017-Apr-28 05:58N 42°02' W 070°29'278 8.1
2017-Apr-26 19:41N 39°03' W 075°10'211.9
2017-Apr-26 19:30N 39°05' W 075°11'612.2
2017-Apr-26 19:00N 39°10' W 075°16'612.5
2017-Apr-26 18:30N 39°16' W 075°20'612.3
2017-Apr-26 18:01N 39°20' W 075°25'611.3
2017-Apr-26 17:31N 39°24' W 075°30'5 9.9
2017-Apr-26 17:00N 39°29' W 075°34'5 9.3
2017-Apr-26 16:30N 39°33' W 075°32'3 6.5
2017-Apr-26 16:00N 39°35' W 075°36'0 0.0
2017-Apr-26 15:30N 39°35' W 075°36'0 0.0
2017-Apr-26 15:00N 39°35' W 075°36'0 0.0
2017-Apr-26 14:30N 39°35' W 075°36'0 0.0
2017-Apr-26 13:30N 39°35' W 075°36'0 0.0
2017-Apr-26 13:00N 39°35' W 075°36'0 0.0
2017-Apr-26 12:30N 39°35' W 075°36'0 0.0
2017-Apr-26 12:00N 39°35' W 075°36'0 0.0
2017-Apr-26 11:30N 39°35' W 075°36'0 0.0
2017-Apr-26 11:00N 39°35' W 075°36'0 0.0
2017-Apr-26 10:30N 39°35' W 075°36'0 0.0
2017-Apr-26 10:00N 39°35' W 075°36'0 0.0
2017-Apr-26 09:30N 39°35' W 075°36'0 0.0
2017-Apr-26 09:00N 39°35' W 075°36'0 0.0
2017-Apr-26 08:30N 39°35' W 075°36'0 0.0
2017-Apr-26 08:00N 39°35' W 075°36'0 0.0
2017-Apr-26 07:30N 39°35' W 075°36'0 0.0
2017-Apr-26 07:00N 39°35' W 075°36'0 0.0
2017-Apr-26 06:30N 39°35' W 075°36'0 0.0
2017-Apr-26 06:00N 39°35' W 075°36'0 0.0
2017-Apr-26 05:30N 39°35' W 075°36'0 0.0
2017-Apr-26 05:00N 39°35' W 075°36'0 0.0
2017-Apr-26 04:30N 39°35' W 075°36'0 0.0
2017-Apr-26 04:00N 39°35' W 075°36'0 0.0
2017-Apr-26 03:30N 39°35' W 075°36'0 0.0
2017-Apr-26 03:00N 39°35' W 075°36'0 0.0
2017-Apr-26 02:30N 39°35' W 075°36'0 0.0
2017-Apr-26 02:00N 39°35' W 075°36'0 0.0
2017-Apr-26 01:30N 39°35' W 075°36'0 0.0
2017-Apr-26 01:00N 39°35' W 075°36'0 0.0
2017-Apr-26 00:30N 39°35' W 075°36'0 0.0
2017-Apr-26 00:00N 39°35' W 075°36'0 0.0
2017-Apr-25 23:30N 39°35' W 075°36'0 0.0
2017-Apr-25 23:00N 39°35' W 075°36'0 0.0
2017-Apr-25 22:30N 39°35' W 075°36'0 0.0
2017-Apr-25 22:00N 39°35' W 075°36'0 0.0
2017-Apr-25 21:30N 39°35' W 075°36'0 0.0
2017-Apr-25 21:00N 39°35' W 075°36'0 0.0
2017-Apr-25 20:30N 39°35' W 075°36'0 0.0
2017-Apr-25 20:00N 39°35' W 075°36'0 0.0
2017-Apr-25 19:30N 39°35' W 075°36'0 0.0
2017-Apr-25 19:00N 39°35' W 075°36'0 0.0
2017-Apr-25 18:30N 39°35' W 075°36'0 0.0
2017-Apr-25 18:00N 39°35' W 075°36'0 0.0
2017-Apr-25 17:30N 39°35' W 075°36'0 0.0
2017-Apr-25 17:00N 39°35' W 075°36'0 0.0
2017-Apr-25 16:30N 39°35' W 075°36'0 0.0
2017-Apr-25 16:00N 39°35' W 075°36'0 0.0
2017-Apr-25 15:30N 39°35' W 075°36'0 0.0
2017-Apr-25 15:00N 39°35' W 075°36'0 0.0
2017-Apr-25 14:00N 39°35' W 075°36'0 0.0
2017-Apr-25 13:30N 39°35' W 075°36'0 0.0
2017-Apr-25 13:00N 39°35' W 075°36'0 0.0
2017-Apr-25 12:30N 39°35' W 075°36'0 0.0
2017-Apr-25 12:00N 39°35' W 075°36'0 0.0
2017-Apr-25 11:30N 39°35' W 075°36'0 0.0
2017-Apr-25 11:00N 39°35' W 075°36'0 0.0
2017-Apr-25 10:30N 39°35' W 075°36'0 0.0
2017-Apr-25 10:00N 39°35' W 075°36'0 0.0
2017-Apr-25 09:30N 39°35' W 075°36'0 0.0
2017-Apr-25 09:00N 39°35' W 075°36'0 0.0
2017-Apr-25 08:30N 39°35' W 075°36'0 0.0
2017-Apr-25 07:57N 39°35' W 075°36'0 0.0
2017-Apr-25 07:30N 39°35' W 075°36'0 0.0
2017-Apr-25 07:00N 39°35' W 075°36'0 0.0
2017-Apr-25 06:30N 39°35' W 075°36'0 0.0
2017-Apr-25 06:00N 39°35' W 075°36'0 0.0
2017-Apr-25 05:30N 39°35' W 075°36'0 0.0
2017-Apr-25 05:00N 39°35' W 075°36'0 0.0
2017-Apr-25 04:30N 39°35' W 075°36'0 0.0
2017-Apr-25 04:00N 39°35' W 075°36'1 2.3
2017-Apr-25 03:30N 39°35' W 075°34'1 2.0
2017-Apr-25 03:00N 39°36' W 075°34'4 7.2
2017-Apr-25 02:30N 39°39' W 075°33'4 7.9
2017-Apr-25 02:00N 39°43' W 075°31'4 7.9
2017-Apr-25 01:30N 39°46' W 075°28'3 6.9
2017-Apr-25 01:00N 39°48' W 075°25'0 0.0
2017-Apr-25 00:29N 39°48' W 075°25'0 0.4
2017-Apr-24 23:59N 39°48' W 075°25'0 0.1
2017-Apr-24 23:29N 39°48' W 075°25'0 0.0
2017-Apr-24 22:59N 39°48' W 075°25'0 0.0
2017-Apr-24 22:29N 39°48' W 075°25'0 0.0
2017-Apr-24 21:59N 39°48' W 075°25'0 0.0
2017-Apr-24 21:29N 39°48' W 075°25'0 0.0
2017-Apr-24 20:59N 39°48' W 075°25'0 0.0
2017-Apr-24 20:30N 39°48' W 075°25'0 0.0
2017-Apr-24 20:00N 39°48' W 075°25'0 0.0
2017-Apr-24 19:30N 39°48' W 075°25'0 0.1
2017-Apr-24 19:00N 39°48' W 075°25'0 0.0
2017-Apr-24 18:30N 39°48' W 075°25'0 0.0
2017-Apr-24 18:00N 39°48' W 075°25'0 0.3
2017-Apr-24 17:30N 39°48' W 075°25'1 2.2
2017-Apr-24 17:00N 39°49' W 075°24'0 0.2
2017-Apr-24 16:24N 39°49' W 075°23'0 0.0
2017-Apr-24 16:00N 39°49' W 075°23'0 0.0
2017-Apr-24 15:30N 39°49' W 075°23'0 0.1
2017-Apr-24 15:00N 39°49' W 075°23'0 0.0
2017-Apr-24 14:30N 39°49' W 075°23'0 0.0
2017-Apr-24 13:27N 39°49' W 075°23'0 0.0
2017-Apr-24 13:00N 39°49' W 075°23'0 0.1
2017-Apr-24 12:30N 39°49' W 075°24'0 0.2
2017-Apr-24 12:00N 39°49' W 075°24'0 0.2
2017-Apr-24 11:30N 39°49' W 075°24'0 0.0
2017-Apr-24 11:00N 39°49' W 075°24'0 0.0
2017-Apr-24 10:30N 39°49' W 075°24'0 0.0
2017-Apr-24 10:00N 39°49' W 075°24'0 0.0
2017-Apr-24 09:30N 39°49' W 075°24'0 0.0
2017-Apr-24 09:00N 39°49' W 075°24'0 0.0
2017-Apr-24 08:30N 39°49' W 075°24'0 0.0
2017-Apr-24 08:00N 39°49' W 075°24'0 0.0
2017-Apr-24 07:30N 39°49' W 075°24'0 0.0
2017-Apr-24 07:00N 39°49' W 075°24'0 0.0
2017-Apr-24 06:30N 39°49' W 075°24'0 0.0
2017-Apr-24 06:00N 39°49' W 075°24'0 0.0
2017-Apr-24 05:30N 39°49' W 075°24'0 0.3
2017-Apr-24 05:00N 39°49' W 075°23'0 0.1
2017-Apr-24 04:30N 39°49' W 075°23'0 0.0
2017-Apr-24 04:00N 39°49' W 075°23'0 0.0
2017-Apr-24 03:30N 39°49' W 075°23'0 0.0
2017-Apr-24 03:00N 39°49' W 075°23'0 0.0
2017-Apr-24 02:30N 39°49' W 075°23'0 0.0
2017-Apr-24 01:57N 39°49' W 075°23'0 0.0
2017-Apr-24 01:30N 39°49' W 075°23'0 0.0
2017-Apr-24 01:00N 39°49' W 075°23'0 0.0
2017-Apr-24 00:30N 39°49' W 075°23'0 0.0
2017-Apr-24 00:00N 39°49' W 075°23'0 0.0
2017-Apr-23 23:27N 39°49' W 075°23'0 0.3
2017-Apr-23 23:00N 39°49' W 075°24'0 0.2
2017-Apr-23 22:30N 39°49' W 075°24'0 0.0
2017-Apr-23 22:00N 39°49' W 075°24'0 0.1
2017-Apr-23 21:30N 39°49' W 075°24'0 0.0
2017-Apr-23 21:00N 39°49' W 075°24'0 0.0
2017-Apr-23 20:27N 39°49' W 075°24'0 0.0
2017-Apr-23 20:00N 39°49' W 075°24'0 0.0
2017-Apr-23 19:30N 39°49' W 075°24'0 0.1
2017-Apr-23 18:57N 39°49' W 075°24'0 0.8
2017-Apr-23 18:30N 39°49' W 075°24'5 9.3
2017-Apr-23 18:00N 39°51' W 075°19'4 7.6
2017-Apr-23 17:29N 39°51' W 075°14'0 0.1
2017-Apr-23 16:59N 39°51' W 075°14'0 0.4
2017-Apr-23 16:30N 39°52' W 075°14'2 4.6
2017-Apr-23 15:58N 39°54' W 075°12'0 0.1
2017-Apr-23 15:28N 39°54' W 075°12'0 0.0
2017-Apr-23 14:55N 39°54' W 075°12'0 0.0
2017-Apr-23 13:58N 39°54' W 075°12'0 0.0
2017-Apr-23 13:28N 39°54' W 075°12'0 0.0
2017-Apr-23 12:58N 39°54' W 075°12'0 0.0
2017-Apr-23 12:28N 39°54' W 075°12'0 0.0
2017-Apr-23 11:58N 39°54' W 075°12'0 0.0
2017-Apr-23 11:30N 39°54' W 075°12'3 5.1
2017-Apr-23 10:58N 39°51' W 075°14'0 0.2
2017-Apr-23 10:28N 39°51' W 075°14'0 0.0
2017-Apr-23 09:58N 39°51' W 075°14'0 0.0
2017-Apr-23 09:28N 39°51' W 075°14'0 0.0
2017-Apr-23 08:58N 39°51' W 075°14'0 0.0
2017-Apr-23 08:28N 39°51' W 075°14'0 0.0
2017-Apr-23 07:58N 39°51' W 075°14'0 0.0
2017-Apr-23 07:28N 39°51' W 075°14'0 0.0
2017-Apr-23 06:58N 39°51' W 075°14'0 0.0
2017-Apr-23 06:28N 39°51' W 075°14'0 0.9
2017-Apr-23 06:01N 39°51' W 075°14'2 2.9
2017-Apr-23 05:29N 39°51' W 075°16'0 0.0
2017-Apr-23 04:59N 39°51' W 075°16'0 0.0
2017-Apr-23 04:29N 39°51' W 075°16'0 0.0
2017-Apr-23 03:59N 39°51' W 075°16'0 0.0
2017-Apr-23 03:29N 39°51' W 075°16'0 0.0
2017-Apr-23 02:59N 39°51' W 075°16'0 0.0
2017-Apr-23 02:29N 39°51' W 075°16'0 0.0
2017-Apr-23 01:59N 39°51' W 075°16'0 0.0
2017-Apr-23 01:29N 39°51' W 075°16'0 0.0
2017-Apr-23 00:59N 39°51' W 075°16'0 0.0
2017-Apr-23 00:29N 39°51' W 075°16'0 0.0
2017-Apr-22 23:59N 39°51' W 075°16'0 0.0
2017-Apr-22 23:29N 39°51' W 075°16'0 0.0
2017-Apr-22 22:59N 39°51' W 075°16'0 0.0
2017-Apr-22 22:29N 39°51' W 075°16'0 0.0
2017-Apr-22 21:59N 39°51' W 075°16'0 0.0
2017-Apr-22 21:29N 39°51' W 075°16'0 0.0
2017-Apr-22 20:59N 39°51' W 075°16'0 0.0
2017-Apr-22 20:29N 39°51' W 075°16'0 0.0
2017-Apr-22 19:59N 39°51' W 075°16'0 0.0
2017-Apr-22 19:29N 39°51' W 075°16'0 0.0
2017-Apr-22 18:59N 39°51' W 075°16'0 0.0
2017-Apr-22 18:29N 39°51' W 075°16'0 0.0
2017-Apr-22 17:59N 39°51' W 075°16'0 0.0
2017-Apr-22 17:29N 39°51' W 075°16'0 0.0
2017-Apr-22 16:59N 39°51' W 075°16'0 0.0
2017-Apr-22 16:29N 39°51' W 075°16'0 0.0
2017-Apr-22 15:59N 39°51' W 075°16'0 0.0
2017-Apr-22 15:29N 39°51' W 075°16'0 0.0
2017-Apr-22 14:59N 39°51' W 075°16'0 0.0
2017-Apr-22 14:29N 39°51' W 075°16'0 0.0
2017-Apr-22 13:29N 39°51' W 075°16'0 0.0
2017-Apr-22 12:59N 39°51' W 075°16'0 0.0
2017-Apr-22 12:29N 39°51' W 075°16'0 0.0
2017-Apr-22 11:59N 39°51' W 075°16'0 0.0
2017-Apr-22 11:29N 39°51' W 075°16'0 0.0
2017-Apr-22 10:59N 39°51' W 075°16'0 0.0
2017-Apr-22 10:29N 39°51' W 075°16'0 0.0
2017-Apr-22 09:59N 39°51' W 075°16'0 0.0
2017-Apr-22 09:29N 39°51' W 075°16'0 0.0
2017-Apr-22 08:59N 39°51' W 075°16'0 0.0
2017-Apr-22 08:29N 39°51' W 075°16'0 0.0
2017-Apr-22 07:59N 39°51' W 075°16'0 0.0
2017-Apr-22 07:29N 39°51' W 075°16'0 0.0
2017-Apr-22 06:59N 39°51' W 075°16'0 0.0
2017-Apr-22 06:29N 39°51' W 075°16'0 0.0
2017-Apr-22 05:59N 39°51' W 075°16'0 0.0
2017-Apr-22 05:29N 39°51' W 075°16'0 0.0
2017-Apr-22 04:59N 39°51' W 075°16'0 0.0
2017-Apr-22 04:29N 39°51' W 075°16'0 0.0
2017-Apr-22 03:59N 39°51' W 075°16'0 0.0
2017-Apr-22 03:29N 39°51' W 075°16'0 0.0
2017-Apr-22 02:59N 39°51' W 075°16'0 0.0
2017-Apr-22 02:29N 39°51' W 075°16'0 0.0
2017-Apr-22 01:59N 39°51' W 075°16'0 0.0
2017-Apr-22 01:29N 39°51' W 075°16'0 0.0
2017-Apr-22 00:56N 39°51' W 075°16'0 0.0
2017-Apr-22 00:29N 39°51' W 075°16'0 0.0
2017-Apr-21 23:59N 39°51' W 075°16'0 0.0
2017-Apr-21 23:29N 39°51' W 075°16'0 0.0
2017-Apr-21 23:00N 39°51' W 075°16'0 0.2
2017-Apr-21 22:30N 39°51' W 075°16'3 5.8
2017-Apr-21 22:00N 39°52' W 075°13'0 0.3
2017-Apr-21 21:30N 39°52' W 075°13'0 0.1
2017-Apr-21 21:00N 39°52' W 075°13'0 0.1
2017-Apr-21 20:30N 39°52' W 075°13'0 0.1
2017-Apr-21 20:00N 39°52' W 075°13'0 0.0
2017-Apr-21 19:30N 39°52' W 075°13'0 0.1
2017-Apr-21 19:00N 39°52' W 075°13'0 0.0
2017-Apr-21 18:30N 39°52' W 075°13'0 0.0
2017-Apr-21 18:00N 39°52' W 075°13'0 0.0
2017-Apr-21 17:30N 39°52' W 075°13'0 0.0
2017-Apr-21 17:00N 39°52' W 075°13'0 0.0
2017-Apr-21 16:30N 39°52' W 075°13'0 0.0
2017-Apr-21 16:00N 39°52' W 075°13'0 0.0
2017-Apr-21 15:30N 39°52' W 075°13'0 0.0
2017-Apr-21 15:00N 39°52' W 075°13'0 0.3
2017-Apr-21 14:27N 39°52' W 075°13'0 0.1
2017-Apr-21 13:30N 39°52' W 075°13'0 0.0
2017-Apr-21 13:00N 39°52' W 075°13'0 0.0
2017-Apr-21 12:30N 39°52' W 075°13'0 0.0
2017-Apr-21 12:00N 39°52' W 075°13'0 0.0
2017-Apr-21 11:30N 39°52' W 075°13'0 0.0
2017-Apr-21 11:00N 39°52' W 075°13'0 0.0
2017-Apr-21 10:30N 39°52' W 075°13'0 0.0
2017-Apr-21 10:00N 39°52' W 075°13'0 0.0
2017-Apr-21 09:30N 39°52' W 075°13'0 0.2
2017-Apr-21 09:00N 39°52' W 075°13'0 0.2
2017-Apr-21 08:30N 39°52' W 075°13'0 0.1
2017-Apr-21 07:57N 39°52' W 075°13'0 0.0
2017-Apr-21 07:30N 39°52' W 075°13'0 0.1
2017-Apr-21 07:00N 39°52' W 075°13'0 0.0
2017-Apr-21 06:30N 39°52' W 075°13'0 0.0
2017-Apr-21 06:00N 39°52' W 075°13'0 0.0
2017-Apr-21 05:30N 39°52' W 075°13'0 0.0
2017-Apr-21 05:00N 39°52' W 075°13'0 0.0
2017-Apr-21 04:30N 39°52' W 075°13'0 0.0
2017-Apr-21 04:00N 39°52' W 075°13'0 0.0
2017-Apr-21 03:30N 39°52' W 075°13'0 0.0
2017-Apr-21 03:01N 39°52' W 075°13'0 0.2
2017-Apr-21 02:30N 39°52' W 075°13'0 0.2
2017-Apr-21 02:00N 39°52' W 075°13'0 0.0
2017-Apr-21 01:31N 39°52' W 075°13'0 0.0
2017-Apr-21 01:01N 39°52' W 075°13'0 0.0
2017-Apr-21 00:30N 39°52' W 075°13'0 0.1
2017-Apr-21 00:01N 39°52' W 075°13'0 0.8
2017-Apr-20 23:31N 39°52' W 075°13'4 8.0
2017-Apr-20 23:00N 39°51' W 075°18'510.7
2017-Apr-20 22:30N 39°49' W 075°24'611.2
2017-Apr-20 22:00N 39°45' W 075°30'611.3
2017-Apr-20 21:30N 39°39' W 075°33'5 9.6
2017-Apr-20 21:01N 39°35' W 075°33'510.7
2017-Apr-20 20:30N 39°29' W 075°34'510.4
2017-Apr-20 20:00N 39°25' W 075°31'510.7
2017-Apr-20 19:31N 39°21' W 075°26'510.7
2017-Apr-20 19:01N 39°17' W 075°21'510.1
2017-Apr-20 18:31N 39°13' W 075°17'510.4
2017-Apr-20 18:00N 39°08' W 075°14'510.4
2017-Apr-20 17:30N 39°04' W 075°10'  

Dump ship's entire track history